createdAt,value
2023-03-06T00:00:57.943Z,2
2023-03-06T00:21:10.367Z,2.1
2023-03-06T00:41:10.460Z,2
2023-03-06T01:01:02.457Z,1.8
2023-03-06T01:21:01.289Z,1.8
2023-03-06T01:41:01.193Z,1.7
2023-03-06T02:01:02.740Z,1.4
2023-03-06T02:20:58.385Z,1.4
2023-03-06T02:40:58.018Z,1.4
2023-03-06T03:00:59.504Z,1.4
2023-03-06T03:20:58.193Z,1.3
2023-03-06T03:40:57.053Z,1.2
2023-03-06T04:00:57.318Z,1.2
2023-03-06T04:20:58.441Z,1.3
2023-03-06T04:40:57.850Z,1.2
2023-03-06T05:01:27.255Z,1.4
2023-03-06T05:20:59.149Z,1.4
2023-03-06T05:40:58.094Z,1.7
2023-03-06T06:00:57.634Z,2
2023-03-06T06:21:25.404Z,2.3
2023-03-06T06:42:56.923Z,2.4
2023-03-06T07:01:30.451Z,2.5
2023-03-06T07:21:23.869Z,2.7
2023-03-06T07:41:34.951Z,2.9
2023-03-06T08:01:32.347Z,3.2
2023-03-06T08:21:25.276Z,3.2
2023-03-06T08:41:24.753Z,3.6
2023-03-06T09:01:32.161Z,4
2023-03-06T09:21:32.202Z,4.3
2023-03-06T09:41:27.500Z,4.3
2023-03-06T10:01:37.248Z,5
2023-03-06T10:21:44.570Z,5.3
2023-03-06T10:41:36.762Z,5.5
2023-03-06T11:01:24.807Z,5.5
2023-03-06T11:21:31.688Z,6.3
2023-03-06T11:41:28.058Z,6.5
2023-03-06T12:01:33.290Z,6.8
2023-03-06T12:21:25.801Z,6.8
2023-03-06T12:41:32.702Z,7.8
2023-03-06T13:01:29.425Z,7.7
2023-03-06T13:21:31.413Z,7.8
2023-03-06T13:41:32.116Z,7.9
2023-03-06T14:01:31.313Z,8.3
2023-03-06T14:21:32.217Z,8.5
2023-03-06T14:41:30.329Z,8.5
2023-03-06T15:01:34.988Z,9.6
2023-03-06T15:21:28.494Z,9.8
2023-03-06T15:41:34.091Z,9.9
2023-03-06T16:01:36.101Z,10
2023-03-06T16:21:26.042Z,10
2023-03-06T16:41:32.049Z,9.4
2023-03-06T17:01:30.775Z,8.8
2023-03-06T17:21:25.700Z,8.8
2023-03-06T17:40:57.271Z,8.1
2023-03-06T18:00:58.537Z,7.3
2023-03-06T18:21:01.727Z,6.7
2023-03-06T18:40:57.365Z,6.6
2023-03-06T19:00:59.373Z,6.2
2023-03-06T19:20:57.364Z,5.7
2023-03-06T19:41:00.716Z,5.4
2023-03-06T20:01:00.809Z,5.6
2023-03-06T20:21:00.269Z,5.5
2023-03-06T20:41:00.415Z,4.8
2023-03-06T21:00:57.675Z,4.8
2023-03-06T21:20:58.046Z,4.3
2023-03-06T21:40:57.862Z,3.7
2023-03-06T22:01:04.654Z,3.7
2023-03-06T22:20:57.577Z,3.7
2023-03-06T22:40:58.236Z,3.7
2023-03-06T23:01:05.356Z,3.6
2023-03-06T23:20:58.303Z,3.5
2023-03-06T23:40:58.247Z,3.4
